עמוד ראשי
METAR-TAF:

METAR-TAF

שדות תעופה :

קוסקו, פרו

קו רוחב: 13-33S, קו אורך: 071-59W, גובה: 3248מטר

תצפית מזג אוויר נוכחית

הדו"ח נערך לפני 16דקות, בשעה 02:30 UTC
רוח 2קשר עם כיוונים משתנים
טמפרטורת 10 צלסיוס
לחות 62%
לחץ 1031 hPa
ראות 10 קילומטר או יותר

METAR: SPZO 140230Z VRB02KT 9999 NSC 10/03 Q1031 NOSIG RMK BIRD HAZARD RWY 10/28

זמן: 21:46 (02:46 UTC)

תחזית

הדו"ח נערך לפני 3 שעות ו 46דקות, בשעה 23:00 UTC
תחזית בתוקף מ 14 ב 00 UTC עד 14 ב 24 UTC
רוח 5קשר עם כיוונים משתנים
ראות 10 קילומטר או יותר
זמנית מ -
14 ב 18 UTC עד 14 ב 21 UTC
רוח 15קשר מכיוון מערב

TAF: SPZO 132300Z 1400/1424 VRB05KT 9999 NSC TX23/1419Z TNM02/1411Z TEMPO 1418/1421 28015KT

תצפיות ותחזיות מזג אוויר לגבי יותר מ- 4,000 שדות תעופה ברחבי העולם. דוחות METAR ו- TAF.

התחנות הזמינות מסומנות בנקודות צהובות ואדומות על גבי המפה.

העבר את העכבר לנקודה הצבעונית על מנת לראות את שם התחנה.

לאחר מכן, לחץ כדי לראות את תוכן ואת תחזיות מזג האוויר.

כדי לשנות את המפה: לחץ על הכפתורים הירוקים עם הפלוס השחור כדי להתקרב; על הכפתור הירוק עם המקף כדי להתרחק; או בחיצים הירוקים למפות סמוכות.


METAR-TAF: